createdAt,value
2022-11-16T00:03:35.889Z,23.27
2022-11-16T00:08:41.191Z,22.80
2022-11-16T00:13:43.730Z,23.48
2022-11-16T00:18:45.421Z,23.98
2022-11-16T00:23:46.886Z,22.80
2022-11-16T00:28:48.842Z,22.13
2022-11-16T00:33:51.473Z,21.73
2022-11-16T00:38:56.201Z,20.38
2022-11-16T00:43:57.773Z,21.80
2022-11-16T00:48:59.257Z,20.85
2022-11-16T00:54:01.591Z,21.98
2022-11-16T00:59:03.602Z,21.98
2022-11-16T01:04:05.106Z,19.83
2022-11-16T01:09:07.662Z,19.67
2022-11-16T01:14:10.105Z,22.02
2022-11-16T01:19:11.570Z,21.65
2022-11-16T01:24:13.081Z,20.80
2022-11-16T01:29:14.682Z,19.63
2022-11-16T01:34:16.361Z,21.20
2022-11-16T01:39:18.007Z,23.05
2022-11-16T01:44:31.992Z,22.45
2022-11-16T01:49:36.521Z,22.27
2022-11-16T01:54:41.628Z,22.95
2022-11-16T01:59:46.203Z,24.58
2022-11-16T02:10:25.363Z,23.63
2022-11-16T02:15:49.282Z,23.88
2022-11-16T02:20:53.578Z,23.80
2022-11-16T02:26:24.274Z,24.73
2022-11-16T02:31:32.878Z,23.48
2022-11-16T02:36:38.534Z,24.95
2022-11-16T02:41:45.345Z,23.27
2022-11-16T02:46:52.002Z,23.38
2022-11-16T02:51:55.553Z,22.10
2022-11-16T02:57:03.150Z,18.98
2022-11-16T03:02:30.078Z,19.00
2022-11-16T03:07:48.067Z,20.80
2022-11-16T03:12:49.589Z,18.75
2022-11-16T03:17:53.965Z,19.83
2022-11-16T03:23:05.805Z,18.75
2022-11-16T03:28:14.148Z,18.77
2022-11-16T03:33:36.609Z,18.20
2022-11-16T03:38:40.622Z,18.40
2022-11-16T03:43:44.400Z,17.20
2022-11-16T03:48:45.935Z,19.50
2022-11-16T03:53:47.384Z,19.00
2022-11-16T03:58:48.966Z,18.98
2022-11-16T04:03:50.471Z,17.92
2022-11-16T04:09:30.845Z,18.48
2022-11-16T04:14:51.437Z,19.35
2022-11-16T04:20:11.478Z,18.75
2022-11-16T04:25:19.607Z,17.52
2022-11-16T04:30:21.378Z,17.92
2022-11-16T04:35:54.947Z,18.73
2022-11-16T04:40:56.409Z,17.25
2022-11-16T04:46:16.282Z,17.48
2022-11-16T04:51:17.758Z,17.73
2022-11-16T04:56:19.229Z,18.33
2022-11-16T05:01:40.794Z,18.52
2022-11-16T05:06:42.322Z,18.35
2022-11-16T05:11:43.930Z,17.52
2022-11-16T05:16:45.473Z,19.80
2022-11-16T05:21:47.054Z,19.80
2022-11-16T05:26:48.543Z,20.45
2022-11-16T05:31:50.050Z,21.58
2022-11-16T05:36:52.037Z,20.35
2022-11-16T05:41:54.298Z,21.90
2022-11-16T05:46:56.143Z,21.35
2022-11-16T05:51:57.672Z,21.67
2022-11-16T05:56:59.305Z,21.08
2022-11-16T06:02:01.032Z,21.65
2022-11-16T06:07:02.698Z,23.42
2022-11-16T06:12:04.807Z,23.23
2022-11-16T06:17:06.303Z,22.58
2022-11-16T06:22:07.800Z,24.27
2022-11-16T06:27:09.260Z,24.00
2022-11-16T06:32:10.738Z,24.90
2022-11-16T06:37:12.220Z,23.45
2022-11-16T06:42:13.665Z,22.80
2022-11-16T06:47:15.146Z,21.40
2022-11-16T06:52:16.773Z,21.75
2022-11-16T06:57:18.291Z,22.00
2022-11-16T07:02:21.426Z,20.08
2022-11-16T07:07:22.991Z,21.73
2022-11-16T07:12:24.617Z,21.00
2022-11-16T07:17:26.151Z,21.20
2022-11-16T07:22:27.760Z,23.08
2022-11-16T07:27:29.239Z,23.30
2022-11-16T07:32:31.083Z,22.77
2022-11-16T07:37:33.551Z,21.33
2022-11-16T07:42:35.122Z,22.83
2022-11-16T07:47:37.880Z,22.20
2022-11-16T07:52:39.373Z,20.85
2022-11-16T07:57:41.320Z,19.92
2022-11-16T08:02:43.040Z,20.02
2022-11-16T08:07:44.517Z,20.60
2022-11-16T08:12:46.074Z,20.77
2022-11-16T08:17:47.621Z,22.33
2022-11-16T08:22:50.193Z,23.42
2022-11-16T08:27:51.718Z,23.45
2022-11-16T08:32:53.298Z,23.80
2022-11-16T08:37:55.021Z,22.98
2022-11-16T08:42:57.116Z,23.10
2022-11-16T08:48:04.058Z,25.15
2022-11-16T08:53:05.830Z,25.55
2022-11-16T08:58:07.334Z,25.40
2022-11-16T09:03:08.928Z,24.73
2022-11-16T09:08:11.496Z,24.83
2022-11-16T09:13:13.058Z,23.67
2022-11-16T09:18:14.650Z,25.30
2022-11-16T09:23:20.961Z,21.60
2022-11-16T09:28:27.321Z,23.33
2022-11-16T09:33:30.958Z,22.45
2022-11-16T09:39:17.814Z,21.43
2022-11-16T09:44:33.025Z,20.98
2022-11-16T09:49:46.115Z,22.17
2022-11-16T09:54:48.740Z,20.55
2022-11-16T09:59:57.471Z,18.88
2022-11-16T10:05:14.538Z,20.38
2022-11-16T10:10:18.545Z,21.23
2022-11-16T10:15:32.097Z,21.70
2022-11-16T10:21:05.790Z,20.03
2022-11-16T10:26:28.961Z,18.98
2022-11-16T10:31:56.855Z,20.20
2022-11-16T10:37:08.423Z,20.20
2022-11-16T10:42:19.138Z,20.88
2022-11-16T10:47:34.072Z,20.77
2022-11-16T10:52:35.670Z,22.08
2022-11-16T10:57:59.905Z,22.80
2022-11-16T11:08:10.447Z,21.15
2022-11-16T11:13:11.882Z,24.20
2022-11-16T11:18:23.675Z,22.13
2022-11-16T11:23:26.241Z,22.77
2022-11-16T11:28:36.665Z,21.17
2022-11-16T11:33:44.033Z,20.67
2022-11-16T11:38:58.085Z,21.00
2022-11-16T11:44:05.564Z,19.63
2022-11-16T11:49:23.639Z,21.10
2022-11-16T11:54:32.894Z,20.60
2022-11-16T11:59:35.296Z,21.23
2022-11-16T12:04:58.146Z,20.73
2022-11-16T12:10:18.495Z,20.60
2022-11-16T12:15:37.981Z,19.00
2022-11-16T12:20:55.741Z,20.23
2022-11-16T12:26:05.107Z,19.50
2022-11-16T12:31:24.549Z,19.00
2022-11-16T12:36:59.691Z,19.27
2022-11-16T12:42:16.522Z,19.67
2022-11-16T12:47:45.250Z,19.67
2022-11-16T12:53:24.868Z,18.05
2022-11-16T12:58:53.603Z,17.67
2022-11-16T13:04:03.644Z,17.02
2022-11-16T13:09:14.332Z,16.50
2022-11-16T13:14:24.006Z,16.48
2022-11-16T13:19:25.850Z,16.35
2022-11-16T13:24:38.190Z,16.08
2022-11-16T13:29:59.378Z,16.35
2022-11-16T13:35:05.041Z,15.73
2022-11-16T13:40:06.488Z,15.98
2022-11-16T13:45:16.659Z,15.48
2022-11-16T13:50:21.705Z,14.23
2022-11-16T13:55:46.396Z,13.95
2022-11-16T14:01:14.702Z,14.40
2022-11-16T14:06:19.207Z,14.27
2022-11-16T14:11:39.041Z,13.77
2022-11-16T14:16:44.790Z,12.82
2022-11-16T14:22:07.329Z,11.93
2022-11-16T14:27:29.236Z,12.07
2022-11-16T14:32:41.282Z,12.00
2022-11-16T14:37:44.234Z,11.68
2022-11-16T14:43:16.898Z,11.25
2022-11-16T14:48:22.212Z,12.13
2022-11-16T14:53:25.048Z,10.70
2022-11-16T14:58:26.531Z,10.88
2022-11-16T15:03:40.246Z,11.73
2022-11-16T15:08:50.324Z,9.30
2022-11-16T15:13:52.117Z,9.27
2022-11-16T15:19:00.752Z,9.40
2022-11-16T15:24:28.767Z,9.68
2022-11-16T15:29:24.667Z,10.70
2022-11-16T15:34:26.269Z,9.77
2022-11-16T15:39:33.357Z,9.57
2022-11-16T15:44:35.103Z,7.90
2022-11-16T15:49:40.078Z,7.53
2022-11-16T15:55:00.369Z,10.13
2022-11-16T16:00:02.001Z,7.32
2022-11-16T16:05:04.194Z,8.02
2022-11-16T16:10:32.501Z,7.72
2022-11-16T16:15:36.504Z,7.03
2022-11-16T16:20:38.250Z,7.78
2022-11-16T16:25:39.757Z,9.10
2022-11-16T16:30:41.264Z,10.55
2022-11-16T16:35:42.737Z,10.73
2022-11-16T16:40:44.288Z,12.13
2022-11-16T16:45:45.846Z,11.85
2022-11-16T16:50:47.437Z,12.52
2022-11-16T16:55:50.221Z,12.65
2022-11-16T17:00:54.600Z,13.48
2022-11-16T17:06:02.041Z,13.45
2022-11-16T17:11:04.575Z,13.63
2022-11-16T17:16:06.395Z,12.50
2022-11-16T17:21:09.627Z,12.80
2022-11-16T17:26:11.146Z,12.63
2022-11-16T17:31:13.467Z,11.98
2022-11-16T17:36:15.012Z,11.20
2022-11-16T17:41:19.672Z,10.82
2022-11-16T17:46:23.662Z,9.18
2022-11-16T17:51:26.089Z,9.95
2022-11-16T17:56:28.741Z,9.98
2022-11-16T18:01:31.295Z,9.73
2022-11-16T18:06:33.220Z,8.18
2022-11-16T18:11:35.852Z,8.77
2022-11-16T18:16:37.613Z,9.02
2022-11-16T18:21:40.575Z,8.18
2022-11-16T18:26:42.255Z,7.93
2022-11-16T18:31:43.807Z,8.50
2022-11-16T18:36:48.785Z,7.55
2022-11-16T18:41:55.157Z,9.20
2022-11-16T18:46:56.946Z,8.05
2022-11-16T18:51:58.445Z,8.18
2022-11-16T18:57:00.412Z,8.43
2022-11-16T19:02:01.951Z,8.07
2022-11-16T19:07:03.476Z,6.90
2022-11-16T19:12:05.282Z,6.78
2022-11-16T19:17:06.824Z,6.18
2022-11-16T19:22:08.332Z,5.93
2022-11-16T19:27:09.835Z,6.20
2022-11-16T19:32:11.328Z,5.47
2022-11-16T19:37:13.900Z,5.13
2022-11-16T19:42:15.418Z,6.00
2022-11-16T19:47:17.505Z,5.45
2022-11-16T19:52:19.834Z,5.20
2022-11-16T19:57:21.344Z,4.97
2022-11-16T20:02:22.837Z,5.57
2022-11-16T20:07:24.421Z,5.13
2022-11-16T20:12:25.970Z,4.82
2022-11-16T20:17:27.512Z,4.18
2022-11-16T20:22:29.027Z,4.57
2022-11-16T20:27:30.551Z,4.22
2022-11-16T20:32:32.051Z,4.82
2022-11-16T20:37:33.625Z,3.97
2022-11-16T20:42:35.094Z,4.43
2022-11-16T20:47:36.978Z,4.10
2022-11-16T20:52:43.056Z,3.95
2022-11-16T20:57:45.928Z,4.72
2022-11-16T21:02:47.434Z,4.72
2022-11-16T21:07:48.953Z,4.03
2022-11-16T21:13:08.801Z,4.35
2022-11-16T21:18:10.298Z,3.67
2022-11-16T21:23:11.787Z,4.03
2022-11-16T21:28:13.275Z,3.55
2022-11-16T21:33:14.754Z,3.75
2022-11-16T21:38:16.460Z,4.15
2022-11-16T21:43:18.004Z,3.70
2022-11-16T21:48:19.475Z,3.22
2022-11-16T21:53:20.979Z,3.55
2022-11-16T21:58:22.601Z,3.45
2022-11-16T22:03:29.375Z,3.45
2022-11-16T22:08:30.843Z,4.90
2022-11-16T22:13:32.528Z,3.80
2022-11-16T22:18:34.697Z,3.55
2022-11-16T22:23:37.327Z,3.70
2022-11-16T22:28:39.656Z,3.08
2022-11-16T22:33:41.790Z,3.03
2022-11-16T22:38:43.281Z,2.97
2022-11-16T22:43:44.754Z,2.77
2022-11-16T22:48:47.836Z,2.83
2022-11-16T22:53:57.623Z,2.42
2022-11-16T22:59:00.766Z,2.72
2022-11-16T23:04:02.377Z,2.28
2022-11-16T23:09:04.392Z,2.23
2022-11-16T23:14:25.912Z,2.20
2022-11-16T23:19:46.292Z,1.88
2022-11-16T23:25:06.475Z,1.98
2022-11-16T23:30:12.682Z,1.85
2022-11-16T23:35:14.568Z,1.77
2022-11-16T23:40:16.402Z,1.80
2022-11-16T23:45:18.473Z,1.83
2022-11-16T23:50:20.008Z,1.67
2022-11-16T23:55:23.033Z,1.75
